Hestrud (Nord, France) - 208 m
Donnes mto: Actuelle lundi, 22/04/2024 04:05
Date Horaire Temp. E. Hum. E. P.atmo. Pluie Vent Direction Direction Ensoleilleme Ev.Tr. UV Solaire P. de rose Temp au vent Rafales
22/04/2024 04:05 -0,2 C 96 % 1025,7 hPa 0,0 mm 0,0 km/h (0 Bft) N-NO 337 0 min 0,000 mm 0,0 UV-I 0 W/m -0,8 C -0,2 C 1,6 km/h (1 Bft)
22/04/2024 03:05 0,1 C 96 % 1026,0 hPa 0,0 mm 0,0 km/h (0 Bft) N 0 0 min 0,000 mm 0,0 UV-I 0 W/m -0,5 C 0,1 C 0,0 km/h (0 Bft)
22/04/2024 02:05 0,4 C 95 % 1026,1 hPa 0,0 mm 0,0 km/h (0 Bft) N-NO 337 0 min 0,000 mm 0,0 UV-I 0 W/m -0,3 C 0,4 C 3,2 km/h (1 Bft)
22/04/2024 01:05 1,0 C 94 % 1026,2 hPa 0,0 mm 0,0 km/h (0 Bft) N-NO 337 0 min 0,000 mm 0,0 UV-I 0 W/m 0,1 C 1,0 C 1,6 km/h (1 Bft)
22/04/2024 00:05 1,6 C 90 % 1026,0 hPa 0,0 mm 0,0 km/h (0 Bft) N-NO 337 0 min 0,000 mm 0,0 UV-I 0 W/m 0,1 C 1,6 C 1,6 km/h (1 Bft)
21/04/2024 23:05 2,6 C 89 % 1026,0 hPa 0,0 mm 1,6 km/h (1 Bft) NE 45 0 min 0,000 mm 0,0 UV-I 0 W/m 1,0 C 2,6 C 1,6 km/h (1 Bft)
21/04/2024 22:05 4,5 C 87 % 1025,8 hPa 0,0 mm 1,6 km/h (1 Bft) E-NE 67 0 min 0,000 mm 0,0 UV-I 0 W/m 2,5 C 4,5 C 1,6 km/h (1 Bft)
21/04/2024 21:05 6,2 C 76 % 1025,4 hPa 0,0 mm 11,3 km/h (2 Bft) E 90 0 min 0,025 mm 0,0 UV-I 0 W/m 2,3 C 2,6 C 14,5 km/h (3 Bft)
21/04/2024 20:05 7,1 C 68 % 1024,6 hPa 0,0 mm 8,0 km/h (2 Bft) N-NE 22 7 min 0,051 mm 0,0 UV-I 39 W/m 1,6 C 5,8 C 11,3 km/h (2 Bft)
21/04/2024 19:05 8,4 C 61 % 1024,4 hPa 0,0 mm 8,0 km/h (2 Bft) NE 45 40 min 0,152 mm 0,0 UV-I 155 W/m 1,3 C 7,2 C 12,9 km/h (3 Bft)
21/04/2024 18:05 8,4 C 64 % 1024,5 hPa 0,0 mm 8,0 km/h (2 Bft) E-NE 67 40 min 0,203 mm 0,9 UV-I 79 W/m 2,0 C 7,2 C 16,1 km/h (3 Bft)
21/04/2024 17:05 9,7 C 67 % 1024,2 hPa 0,0 mm 11,3 km/h (2 Bft) N-NE 22 59 min 0,229 mm 1,9 UV-I 636 W/m 3,9 C 6,5 C 14,5 km/h (3 Bft)
21/04/2024 16:05 8,8 C 66 % 1024,1 hPa 0,0 mm 12,9 km/h (3 Bft) E-NE 67 60 min 0,254 mm 1,4 UV-I 239 W/m 2,8 C 4,7 C 20,9 km/h (4 Bft)
21/04/2024 15:05 7,7 C 73 % 1024,1 hPa 0,0 mm 14,5 km/h (3 Bft) E-NE 67 60 min 0,254 mm 2,7 UV-I 459 W/m 3,2 C 2,6 C 19,3 km/h (3 Bft)
21/04/2024 14:05 7,5 C 76 % 1023,9 hPa 0,0 mm 11,3 km/h (2 Bft) NE 45 59 min 0,279 mm 1,9 UV-I 306 W/m 3,5 C 4,0 C 19,3 km/h (3 Bft)
21/04/2024 13:05 6,2 C 88 % 1023,5 hPa 0,2 mm 12,9 km/h (3 Bft) E-NE 67 49 min 0,152 mm 1,4 UV-I 244 W/m 4,4 C 1,6 C 17,7 km/h (3 Bft)
21/04/2024 12:05 5,2 C 87 % 1022,7 hPa 0,0 mm 11,3 km/h (2 Bft) N 360 53 min 0,127 mm 0,6 UV-I 121 W/m 3,2 C 1,4 C 17,7 km/h (3 Bft)
21/04/2024 11:05 4,3 C 89 % 1022,4 hPa 0,0 mm 8,0 km/h (2 Bft) N 360 39 min 0,102 mm 1,4 UV-I 341 W/m 2,7 C 2,9 C 14,5 km/h (3 Bft)
21/04/2024 10:05 4,2 C 90 % 1021,8 hPa 0,0 mm 9,7 km/h (2 Bft) N-NO 337 7 min 0,051 mm 1,0 UV-I 174 W/m 2,7 C 1,4 C 16,1 km/h (3 Bft)
21/04/2024 09:05 4,9 C 92 % 1021,9 hPa 0,0 mm 9,7 km/h (2 Bft) N-NO 337 27 min 0,076 mm 0,0 UV-I 127 W/m 3,7 C 2,2 C 16,1 km/h (3 Bft)
21/04/2024 08:05 3,1 C 95 % 1022,5 hPa 0,0 mm 6,4 km/h (2 Bft) NO 315 13 min 0,025 mm 0,0 UV-I 193 W/m 2,4 C 3,1 C 9,7 km/h (2 Bft)
21/04/2024 07:05 2,4 C 95 % 1022,6 hPa 0,0 mm 4,8 km/h (1 Bft) N-NO 337 0 min 0,000 mm 0,0 UV-I 14 W/m 1,7 C 2,4 C 11,3 km/h (2 Bft)
21/04/2024 06:05 2,8 C 95 % 1022,9 hPa 0,2 mm 6,4 km/h (2 Bft) N-NO 337 0 min 0,000 mm 0,0 UV-I 0 W/m 2,1 C 2,8 C 12,9 km/h (3 Bft)
21/04/2024 05:05 3,1 C 95 % 1022,9 hPa 0,0 mm 4,8 km/h (1 Bft) N-NO 337 0 min 0,000 mm 0,0 UV-I 0 W/m 2,4 C 3,1 C 8,0 km/h (2 Bft)
21/04/2024 05:00 3,1 C 95 % 1023,0 hPa 0,0 mm 4,8 km/h (1 Bft) NO 315 0 min 0,000 mm 0,0 UV-I 0 W/m 2,4 C 3,1 C 8,0 km/h (2 Bft)
_ Min-Heure 03:30 17:20 09:34 - 22:13 - - - - - - 03:30 12:59 22:14
Minimum _ -0,3 C 58 % 1021,6 hPa - 0,0 km/h (0 Bft) - - - - - - -1,0 C -2,5 C 0,0 km/h (0 Bft)
_ Max-Heure 17:10 07:52 00:17 05:16 15:54 - - 07:53 14:00 13:38 13:55 13:58 16:44 15:54
Maximum _ 9,9 C 96 % 1026,2 hPa 0,2 mm 25,7 km/h
E-NE (4 Bft)
- - 1 min 0,279 mm 4,2 UV-I 1028 W/m 4,8 C 9,4 C 38,6 km/h
E-NE (5 Bft)
Moyenne _ 4,5 C 85 % 1024,1 hPa #0,4 mm 7,1 km/h (2 Bft) E-NE - #0 min. #0,000 mm 0,0 UV-I 0 W/m 2,1 C 2,9 C 11,4 km/h (2 Bft)